Time;durP1;ratioP1;P1;durP2;ratioP2;P2;SDS_P1;SDS_P2;PMS_P1;PMS_P2;Temp;Humidity;BMP_temperature;BMP_pressure;BME280_temperature;BME280_humidity;BME280_pressure;Samples;Min_cycle;Max_cycle;Signal;HPM_P1;HPM_P2
2022/04/20 00:03:24;;;;;;;4.62;3.30;;;13.30;68.80;;;;;;10906228;32;20023;-73
2022/04/20 00:09:26;;;;;;;5.57;3.72;;;13.30;69.20;;;;;;10894553;32;20015;-73
2022/04/20 00:15:28;;;;;;;6.00;2.50;;;13.30;69.00;;;;;;10902804;32;20058;-73
2022/04/20 00:21:30;;;;;;;6.57;3.58;;;13.30;68.90;;;;;;10905627;32;20074;-73
2022/04/20 00:27:34;;;;;;;6.60;3.17;;;13.20;68.90;;;;;;10906235;32;20027;-73
2022/04/20 00:33:37;;;;;;;7.50;3.08;;;13.20;68.90;;;;;;10906844;32;20028;-74
2022/04/20 00:39:39;;;;;;;7.10;3.55;;;13.10;69.10;;;;;;10906591;32;20051;-74
2022/04/20 00:45:42;;;;;;;7.62;2.78;;;13.00;69.20;;;;;;10906366;32;20019;-74
2022/04/20 00:51:57;;;;;;;5.20;3.22;;;13.00;69.10;;;;;;10906131;32;20045;-74
2022/04/20 00:57:59;;;;;;;3.67;2.55;;;12.80;69.00;;;;;;10905877;32;20027;-74
2022/04/20 01:04:03;;;;;;;4.12;3.33;;;12.80;69.20;;;;;;10892415;32;20027;-73
2022/04/20 01:10:07;;;;;;;7.18;2.83;;;12.70;69.40;;;;;;10905504;32;20023;-74
2022/04/20 01:16:09;;;;;;;2.53;2.33;;;12.70;69.40;;;;;;10931137;27;20148;-74
2022/04/20 01:22:12;;;;;;;4.22;2.47;;;12.70;69.50;;;;;;10941331;32;20050;-74
2022/04/20 01:28:15;;;;;;;2.92;1.62;;;12.70;69.40;;;;;;10942477;32;20438;-75
2022/04/20 01:34:17;;;;;;;12.55;2.47;;;12.70;69.50;;;;;;10942327;32;20346;-74
2022/04/20 01:40:19;;;;;;;2.00;1.80;;;12.70;69.40;;;;;;10942281;32;20062;-74
2022/04/20 01:46:22;;;;;;;6.30;1.85;;;12.60;69.30;;;;;;10942082;32;20023;-74
2022/04/20 01:52:24;;;;;;;4.05;1.45;;;12.50;69.60;;;;;;10941815;32;20023;-74
2022/04/20 01:58:28;;;;;;;2.10;1.33;;;12.60;69.80;;;;;;10941758;32;20027;-74
2022/04/20 02:04:31;;;;;;;1.30;1.20;;;12.60;69.60;;;;;;10941571;32;20031;-74
2022/04/20 02:10:32;;;;;;;2.10;1.35;;;12.50;69.50;;;;;;10928022;32;20061;-74
2022/04/20 02:16:35;;;;;;;1.42;1.30;;;12.60;69.50;;;;;;10941472;32;20031;-74
2022/04/20 02:22:44;;;;;;;1.20;1.10;;;12.60;69.60;;;;;;10937422;32;20046;-75
2022/04/20 02:29:00;;;;;;;1.27;0.90;;;12.60;69.30;;;;;;10941322;32;20031;-74
2022/04/20 02:35:02;;;;;;;1.23;1.12;;;12.60;69.40;;;;;;10943629;32;20031;-74
2022/04/20 02:41:06;;;;;;;1.50;0.95;;;12.70;69.40;;;;;;10948477;32;20027;-74
2022/04/20 02:47:08;;;;;;;3.42;1.80;;;12.70;69.70;;;;;;10948182;32;20038;-74
2022/04/20 02:53:13;;;;;;;1.05;1.05;;;12.70;69.80;;;;;;10943721;32;20027;-75
2022/04/20 02:59:15;;;;;;;2.05;1.17;;;12.70;69.90;;;;;;10947855;32;20328;-74
2022/04/20 03:05:17;;;;;;;2.95;1.33;;;12.60;70.20;;;;;;10947511;32;20031;-74
2022/04/20 03:11:22;;;;;;;2.22;1.00;;;12.60;70.50;;;;;;10947477;32;20057;-74
2022/04/20 03:17:25;;;;;;;1.65;1.02;;;12.70;70.50;;;;;;10946494;32;20057;-73
2022/04/20 03:23:28;;;;;;;0.93;0.90;;;12.60;70.70;;;;;;10945762;32;20053;-74
2022/04/20 03:29:30;;;;;;;1.25;0.80;;;12.70;70.80;;;;;;10947003;32;20050;-74
2022/04/20 03:35:32;;;;;;;0.80;0.80;;;12.60;70.80;;;;;;10946876;32;20050;-73
2022/04/20 03:41:34;;;;;;;1.02;1.02;;;12.70;71.00;;;;;;10946711;32;20043;-73
2022/04/20 03:47:36;;;;;;;0.90;0.90;;;12.70;70.60;;;;;;10946247;32;20035;-74
2022/04/20 03:53:38;;;;;;;3.90;1.10;;;12.70;70.70;;;;;;10946156;32;20046;-73
2022/04/20 03:59:40;;;;;;;0.80;0.80;;;12.60;70.90;;;;;;10945403;32;20027;-73
2022/04/20 04:05:43;;;;;;;0.88;0.85;;;12.70;70.90;;;;;;10945795;32;20030;-73
2022/04/20 04:11:47;;;;;;;1.23;1.12;;;12.60;71.00;;;;;;10943954;32;20070;-73
2022/04/20 04:17:54;;;;;;;0.93;0.93;;;12.60;71.10;;;;;;10945323;32;20394;-73
2022/04/20 04:23:56;;;;;;;1.40;1.08;;;12.70;70.80;;;;;;10945070;32;20061;-73
2022/04/20 04:30:01;;;;;;;1.50;1.40;;;12.70;70.70;;;;;;10941439;32;20027;-73
2022/04/20 04:36:26;;;;;;;1.60;1.20;;;12.70;70.50;;;;;;10942882;32;20421;-73
2022/04/20 04:42:28;;;;;;;1.17;1.08;;;12.70;70.50;;;;;;10943786;32;20030;-73
2022/04/20 04:48:36;;;;;;;1.67;1.23;;;12.70;70.50;;;;;;10944110;32;20019;-73
2022/04/20 04:54:42;;;;;;;1.97;1.50;;;12.80;70.10;;;;;;10944078;32;20450;-73
2022/04/20 05:00:45;;;;;;;1.55;1.08;;;12.80;69.80;;;;;;10929991;32;20015;-73
2022/04/20 05:07:00;;;;;;;1.92;1.37;;;12.80;70.00;;;;;;10943478;32;20053;-72
2022/04/20 05:13:06;;;;;;;1.10;1.10;;;12.80;70.00;;;;;;10939052;32;20034;-72
2022/04/20 05:19:10;;;;;;;1.80;1.40;;;12.80;69.60;;;;;;10938954;32;20055;-73
2022/04/20 05:25:13;;;;;;;1.73;1.42;;;12.80;69.80;;;;;;10942895;32;20027;-73
2022/04/20 05:31:16;;;;;;;1.25;1.15;;;12.70;70.10;;;;;;10941497;32;20030;-73
2022/04/20 05:43:40;;;;;;;1.17;1.00;;;12.80;69.80;;;;;;10901648;32;20085;-73
2022/04/20 05:49:42;;;;;;;1.40;1.27;;;12.90;69.90;;;;;;10904643;32;20042;-73
2022/04/20 05:55:45;;;;;;;1.85;1.40;;;12.90;69.90;;;;;;10904536;32;20391;-73
2022/04/20 06:01:48;;;;;;;1.83;1.20;;;12.90;69.80;;;;;;10887031;32;20026;-74
2022/04/20 06:07:51;;;;;;;1.15;0.95;;;13.00;69.60;;;;;;10903654;32;20442;-73
2022/04/20 06:13:55;;;;;;;4.87;1.42;;;13.10;69.30;;;;;;10910582;32;20019;-73
2022/04/20 06:19:57;;;;;;;4.07;1.90;;;13.20;68.90;;;;;;10897782;32;20028;-72
2022/04/20 06:26:00;;;;;;;1.25;1.15;;;13.20;68.80;;;;;;10912360;32;20062;-73
2022/04/20 06:32:05;;;;;;;1.77;1.40;;;13.30;68.50;;;;;;10945742;32;20035;-72
2022/04/20 06:38:08;;;;;;;1.12;1.02;;;13.40;68.40;;;;;;10911208;32;20419;-72
2022/04/20 06:44:10;;;;;;;1.45;1.35;;;13.40;68.00;;;;;;10910870;32;20020;-72
2022/04/20 06:50:14;;;;;;;1.80;0.98;;;13.40;67.50;;;;;;10910834;32;20023;-72
2022/04/20 07:02:36;;;;;;;3.75;1.95;;;13.60;66.90;;;;;;10932601;32;20031;-73
2022/04/20 07:08:39;;;;;;;2.05;1.55;;;13.60;66.30;;;;;;10943631;32;20023;-72
2022/04/20 07:14:42;;;;;;;1.48;1.20;;;13.60;66.10;;;;;;10946771;32;20027;-72
2022/04/20 07:20:45;;;;;;;1.98;1.33;;;13.70;64.90;;;;;;10947592;32;20388;-72
2022/04/20 07:26:47;;;;;;;2.25;1.60;;;13.70;64.60;;;;;;10945129;32;20038;-73
2022/04/20 07:32:50;;;;;;;1.70;1.60;;;13.80;63.50;;;;;;10946953;32;20070;-72
2022/04/20 07:38:52;;;;;;;6.55;1.80;;;13.80;63.60;;;;;;10933758;32;20026;-72
2022/04/20 07:45:02;;;;;;;;;;;13.90;62.90;;;;;;10947266;32;20022;-72
2022/04/20 07:51:05;;;;;;;2.25;1.62;;;14.00;62.20;;;;;;10946579;32;19930;-72
2022/04/20 07:57:08;;;;;;;1.83;1.30;;;14.10;62.00;;;;;;10945443;32;20053;-73
2022/04/20 08:03:12;;;;;;;2.00;1.40;;;14.10;61.70;;;;;;10945016;32;20034;-73
2022/04/20 08:09:14;;;;;;;1.77;1.50;;;14.10;61.40;;;;;;10945473;32;20035;-73
2022/04/20 08:15:16;;;;;;;4.18;1.83;;;14.10;61.50;;;;;;10943431;32;20046;-69
2022/04/20 08:21:20;;;;;;;1.55;1.45;;;14.20;60.90;;;;;;10940472;32;20082;-69
2022/04/20 08:27:23;;;;;;;3.08;1.55;;;14.30;61.00;;;;;;10941610;32;20057;-69
2022/04/20 08:33:25;;;;;;;2.65;1.77;;;14.40;59.90;;;;;;10938716;32;20034;-69
2022/04/20 08:39:28;;;;;;;4.95;1.52;;;14.50;59.60;;;;;;10940002;32;20027;-69
2022/04/20 08:45:37;;;;;;;2.12;1.58;;;14.70;59.60;;;;;;10943211;32;20066;-69
2022/04/20 08:58:04;;;;;;;1.75;1.35;;;14.90;58.70;;;;;;10943641;32;20078;-68
2022/04/20 09:04:06;;;;;;;4.43;1.62;;;15.00;58.80;;;;;;10929775;32;20023;-68
2022/04/20 09:10:08;;;;;;;7.82;1.98;;;15.20;58.40;;;;;;10929546;32;20349;-69
2022/04/20 09:16:13;;;;;;;4.93;1.77;;;15.30;57.90;;;;;;10936064;27;310739;-69
2022/04/20 09:22:21;;;;;;;1.45;1.15;;;15.30;57.10;;;;;;10924887;32;20011;-68
2022/04/20 09:28:24;;;;;;;5.28;2.05;;;15.50;56.60;;;;;;10937187;32;20431;-69
2022/04/20 09:34:28;;;;;;;25.90;5.32;;;15.70;56.70;;;;;;10925978;32;20045;-69
2022/04/20 09:40:43;;;;;;;41.28;7.53;;;15.80;56.20;;;;;;10941289;32;20063;-69
2022/04/20 09:53:14;;;;;;;4.72;2.25;;;16.10;56.50;;;;;;10937733;32;20027;-69
2022/04/20 09:59:16;;;;;;;3.22;1.73;;;16.20;55.80;;;;;;10937404;32;20022;-69
2022/04/20 10:05:21;;;;;;;7.62;2.62;;;16.30;55.50;;;;;;10939486;32;20034;-69
2022/04/20 10:11:25;;;;;;;1.10;1.00;;;16.30;55.10;;;;;;10941241;32;20018;-69
2022/04/20 10:17:29;;;;;;;3.08;1.30;;;16.30;55.80;;;;;;10928561;32;20027;-70
2022/04/20 10:23:34;;;;;;;9.65;2.08;;;16.50;54.70;;;;;;10903712;32;20329;-68
2022/04/20 10:30:03;;;;;;;4.18;1.65;;;16.80;54.50;;;;;;10903438;32;20050;-69
2022/04/20 10:36:11;;;;;;;3.25;1.77;;;16.80;54.00;;;;;;10903552;32;20426;-69
2022/04/20 10:42:19;;;;;;;4.47;1.40;;;17.10;52.70;;;;;;10902468;32;20046;-69
2022/04/20 10:48:23;;;;;;;3.22;1.73;;;17.20;53.10;;;;;;10901603;32;20077;-69
2022/04/20 10:54:27;;;;;;;6.35;1.42;;;17.20;52.90;;;;;;10903057;32;20053;-69
2022/04/20 11:00:35;;;;;;;2.47;1.17;;;17.40;52.30;;;;;;10909755;32;20046;-70
2022/04/20 11:07:12;;;;;;;2.03;1.37;;;17.90;50.60;;;;;;10922694;32;20045;-70
2022/04/20 11:19:48;;;;;;;4.47;1.92;;;18.40;49.40;;;;;;10920102;32;20035;-70
2022/04/20 11:25:51;;;;;;;2.85;1.05;;;18.80;48.20;;;;;;10933589;32;20438;-70
2022/04/20 11:32:21;;;;;;;13.75;2.72;;;18.90;47.40;;;;;;10947891;32;20054;-70
2022/04/20 11:38:43;;;;;;;3.10;1.58;;;19.20;46.60;;;;;;10946483;32;20050;-70
2022/04/20 11:44:46;;;;;;;1.85;0.98;;;19.30;45.50;;;;;;10946300;32;20023;-69
2022/04/20 11:51:01;;;;;;;2.58;1.45;;;19.30;47.00;;;;;;10946044;32;20419;-70
2022/04/20 11:57:07;;;;;;;2.70;1.23;;;19.80;45.10;;;;;;10928716;32;20351;-70
2022/04/20 12:03:09;;;;;;;4.00;1.42;;;19.80;43.30;;;;;;10944935;32;20023;-70
2022/04/20 12:09:30;;;;;;;3.12;1.05;;;19.70;44.70;;;;;;10942967;32;20062;-70
2022/04/20 12:15:39;;;;;;;2.37;1.55;;;19.80;43.80;;;;;;10945408;32;20015;-69
2022/04/20 12:21:44;;;;;;;2.40;1.50;;;20.10;43.30;;;;;;10940858;32;20027;-70
2022/04/20 12:27:56;;;;;;;0.88;0.85;;;20.30;42.40;;;;;;10944559;32;20061;-70
2022/04/20 12:34:01;;;;;;;2.45;1.20;;;20.10;42.60;;;;;;10944650;32;20343;-70
2022/04/20 12:40:23;;;;;;;2.67;1.33;;;19.90;42.70;;;;;;10926755;32;20034;-70
2022/04/20 12:46:33;;;;;;;5.75;1.77;;;19.70;42.70;;;;;;10892935;32;20396;-74
2022/04/20 12:52:35;;;;;;;2.33;1.37;;;19.60;42.90;;;;;;10906379;32;20391;-74
2022/04/20 13:04:58;;;;;;;1.17;1.00;;;19.80;42.00;;;;;;10903617;32;20031;-73
2022/04/20 13:11:00;;;;;;;2.12;1.08;;;19.60;41.90;;;;;;10905715;32;20023;-73
2022/04/20 13:17:02;;;;;;;2.70;1.23;;;19.50;42.40;;;;;;10905270;32;20038;-73
2022/04/20 13:23:05;;;;;;;3.10;1.60;;;19.90;41.70;;;;;;10891078;32;20023;-74
2022/04/20 13:29:07;;;;;;;2.28;0.82;;;20.30;41.00;;;;;;10905067;32;20049;-72
2022/04/20 13:35:10;;;;;;;2.15;0.90;;;20.50;40.00;;;;;;10900684;32;20396;-72
2022/04/20 13:41:13;;;;;;;1.12;0.80;;;20.10;39.40;;;;;;10904701;32;20073;-73
2022/04/20 13:47:16;;;;;;;1.80;0.98;;;20.00;39.80;;;;;;10900316;32;20039;-73
2022/04/20 13:53:18;;;;;;;1.62;1.37;;;19.80;39.50;;;;;;10904525;32;20289;-73
2022/04/20 13:59:37;;;;;;;1.87;1.30;;;19.80;39.80;;;;;;10904273;32;20324;-73
2022/04/20 14:05:39;;;;;;;0.93;0.80;;;19.80;41.00;;;;;;10904444;32;20023;-72
2022/04/20 14:11:42;;;;;;;3.17;1.23;;;19.60;41.00;;;;;;10904083;32;20077;-73
2022/04/20 14:17:45;;;;;;;0.82;0.77;;;19.70;40.10;;;;;;10900062;32;20024;-73
2022/04/20 14:23:47;;;;;;;2.55;1.30;;;19.80;40.00;;;;;;10902535;32;20024;-74
2022/04/20 14:36:19;;;;;;;3.60;1.92;;;20.30;40.00;;;;;;10907963;32;20050;-74
2022/04/20 14:42:21;;;;;;;2.95;1.50;;;20.80;39.30;;;;;;10910988;32;20062;-74
2022/04/20 14:48:23;;;;;;;3.03;1.60;;;20.80;39.10;;;;;;10917462;32;20031;-74
2022/04/20 14:54:25;;;;;;;2.55;1.25;;;20.80;38.20;;;;;;10910509;32;20061;-74
2022/04/20 15:00:27;;;;;;;2.78;1.50;;;20.80;39.20;;;;;;10909106;32;20039;-73
2022/04/20 15:06:30;;;;;;;2.28;1.17;;;20.40;41.20;;;;;;10947563;32;20354;-73
2022/04/20 15:12:43;;;;;;;1.35;1.10;;;20.20;40.20;;;;;;10943099;32;20027;-72
2022/04/20 15:18:46;;;;;;;3.78;1.80;;;20.00;39.90;;;;;;10945021;32;20019;-74
2022/04/20 15:24:49;;;;;;;2.28;1.10;;;20.00;40.20;;;;;;10946213;32;20054;-72
2022/04/20 15:30:52;;;;;;;0.75;0.73;;;19.90;40.90;;;;;;10942525;32;20442;-72
2022/04/20 15:36:54;;;;;;;1.05;0.95;;;20.20;40.40;;;;;;10946339;32;20057;-72
2022/04/20 15:42:58;;;;;;;3.05;1.52;;;20.70;39.70;;;;;;10945691;32;20026;-73
2022/04/20 15:49:20;;;;;;;3.33;1.15;;;20.60;40.20;;;;;;10945797;32;20031;-72
2022/04/20 16:01:59;;;;;;;1.55;0.98;;;20.10;40.50;;;;;;10946102;32;20027;-72
2022/04/20 16:08:02;;;;;;;1.83;1.50;;;19.80;40.60;;;;;;10912040;32;20109;-73
2022/04/20 16:14:05;;;;;;;1.30;0.98;;;19.50;41.90;;;;;;10907383;32;20024;-72
2022/04/20 16:20:09;;;;;;;6.37;0.95;;;19.20;43.40;;;;;;10907555;32;20355;-72
2022/04/20 16:26:35;;;;;;;2.87;1.48;;;19.00;43.20;;;;;;10907157;32;20066;-72
2022/04/20 16:32:49;;;;;;;2.25;1.35;;;19.00;43.40;;;;;;10893664;32;20023;-72
2022/04/20 16:39:20;;;;;;;2.70;1.37;;;18.80;43.40;;;;;;10908623;32;20055;-72
2022/04/20 16:45:22;;;;;;;6.40;1.48;;;18.80;43.30;;;;;;10889148;32;20063;-72
2022/04/20 16:51:24;;;;;;;1.30;1.08;;;19.10;43.40;;;;;;10902326;32;20065;-73
2022/04/20 16:57:26;;;;;;;2.25;1.27;;;19.00;43.80;;;;;;10905790;32;20058;-72
2022/04/20 17:03:29;;;;;;;2.87;1.12;;;18.70;44.90;;;;;;10904207;32;20053;-73
2022/04/20 17:09:32;;;;;;;1.42;1.33;;;18.50;45.80;;;;;;10905694;32;20089;-73
2022/04/20 17:15:34;;;;;;;4.43;1.58;;;18.30;46.30;;;;;;10915109;27;20400;-73
2022/04/20 17:28:10;;;;;;;2.00;1.60;;;18.00;47.40;;;;;;10942120;32;20035;-72
2022/04/20 17:34:13;;;;;;;6.45;2.10;;;18.30;47.00;;;;;;10938535;32;20403;-72
2022/04/20 17:40:16;;;;;;;1.67;0.93;;;18.50;46.70;;;;;;10927321;32;20064;-72
2022/04/20 17:46:24;;;;;;;1.98;1.30;;;18.20;47.20;;;;;;10942190;32;20049;-72
2022/04/20 17:52:26;;;;;;;2.05;1.40;;;17.80;47.40;;;;;;10942112;32;20049;-72
2022/04/20 17:58:37;;;;;;;1.27;1.17;;;17.70;47.70;;;;;;10929014;32;20019;-72
2022/04/20 18:04:40;;;;;;;3.47;1.45;;;17.50;48.10;;;;;;10939729;32;20359;-72
2022/04/20 18:10:42;;;;;;;1.67;1.42;;;17.30;48.50;;;;;;10942001;32;20129;-72
2022/04/20 18:16:45;;;;;;;1.48;1.20;;;17.20;48.90;;;;;;10941482;32;20041;-72
2022/04/20 18:22:48;;;;;;;1.42;1.20;;;17.10;49.40;;;;;;10937016;32;20292;-73
2022/04/20 18:28:53;;;;;;;1.75;1.10;;;17.00;49.80;;;;;;10940988;32;20405;-72
2022/04/20 18:36:00;;;;;;;4.97;1.65;;;17.00;50.10;;;;;;10941282;32;20031;-73
2022/04/20 18:42:05;;;;;;;2.60;1.60;;;16.90;50.40;;;;;;10937132;32;20089;-73
2022/04/20 18:48:07;;;;;;;1.92;1.73;;;16.80;50.70;;;;;;10940907;32;20019;-72
2022/04/20 19:00:32;;;;;;;1.92;1.20;;;16.60;51.20;;;;;;10940492;32;20104;-73
2022/04/20 19:06:34;;;;;;;2.87;1.70;;;16.50;51.40;;;;;;10896956;32;20027;-73
2022/04/20 19:12:36;;;;;;;2.53;1.90;;;16.40;51.50;;;;;;10902609;32;20430;-72
2022/04/20 19:18:38;;;;;;;2.03;1.65;;;16.30;51.80;;;;;;10932916;32;20046;-72
2022/04/20 19:24:46;;;;;;;2.00;1.45;;;16.30;52.00;;;;;;10934856;32;20375;-72
2022/04/20 19:30:48;;;;;;;3.53;1.87;;;16.20;52.20;;;;;;10945499;32;20058;-72
2022/04/20 19:36:51;;;;;;;3.50;1.92;;;16.20;52.20;;;;;;10930694;32;20061;-73
2022/04/20 19:43:07;;;;;;;1.92;1.62;;;16.00;52.20;;;;;;10908895;32;20047;-73
2022/04/20 19:49:09;;;;;;;3.30;2.12;;;16.00;52.40;;;;;;10906720;32;20332;-73
2022/04/20 19:55:11;;;;;;;2.53;1.62;;;15.90;52.60;;;;;;10908307;32;20031;-73
2022/04/20 20:01:13;;;;;;;1.40;1.30;;;15.80;52.80;;;;;;10908251;32;20371;-73
2022/04/20 20:07:15;;;;;;;2.67;1.98;;;15.80;52.90;;;;;;10894556;32;20035;-73
2022/04/20 20:13:21;;;;;;;4.05;2.33;;;15.70;53.00;;;;;;10907892;32;20027;-73
2022/04/20 20:19:28;;;;;;;3.35;2.10;;;15.80;53.40;;;;;;10907726;32;20391;-73
2022/04/20 20:31:55;;;;;;;2.85;1.73;;;15.80;54.00;;;;;;10906713;32;20027;-69
2022/04/20 20:37:57;;;;;;;2.42;1.95;;;15.70;54.20;;;;;;10890541;32;20061;-73
2022/04/20 20:43:59;;;;;;;2.95;2.00;;;15.70;54.40;;;;;;10906475;32;20057;-69
2022/04/20 20:56:23;;;;;;;3.90;2.05;;;15.70;55.10;;;;;;10906869;32;20080;-73
2022/04/20 21:02:25;;;;;;;6.20;2.42;;;15.50;55.20;;;;;;10906123;32;20039;-73
2022/04/20 21:08:28;;;;;;;5.25;3.35;;;15.50;55.50;;;;;;10904157;32;20024;-73
2022/04/20 21:14:52;;;;;;;5.87;3.85;;;15.40;55.70;;;;;;10904755;32;20023;-73
2022/04/20 21:20:54;;;;;;;5.97;3.70;;;15.40;55.80;;;;;;10905515;32;20019;-73
2022/04/20 21:26:56;;;;;;;6.55;4.22;;;15.30;56.00;;;;;;10902746;32;20034;-73
2022/04/20 21:33:00;;;;;;;7.28;5.07;;;15.30;56.30;;;;;;10905237;32;20031;-73
2022/04/20 21:39:04;;;;;;;5.85;3.90;;;15.20;57.10;;;;;;10904690;32;20061;-73
2022/04/20 21:45:07;;;;;;;7.90;5.07;;;14.90;58.30;;;;;;10904674;32;20049;-70
2022/04/20 21:51:10;;;;;;;6.25;3.95;;;14.90;58.80;;;;;;10904496;32;20077;-69
2022/04/20 21:57:40;;;;;;;8.32;5.00;;;14.90;58.80;;;;;;10904471;32;20320;-69
2022/04/20 22:10:04;;;;;;;5.62;3.65;;;14.80;59.60;;;;;;10904155;32;20080;-69
2022/04/20 22:16:07;;;;;;;6.50;3.95;;;14.60;59.50;;;;;;10891054;32;20334;-72
2022/04/20 22:22:09;;;;;;;7.65;3.53;;;14.60;60.20;;;;;;10904273;32;20020;-72
2022/04/20 22:28:12;;;;;;;5.55;3.95;;;14.50;60.30;;;;;;10903833;32;20027;-73
2022/04/20 22:34:15;;;;;;;11.75;4.37;;;14.60;60.40;;;;;;10903813;32;20027;-72
2022/04/20 22:40:17;;;;;;;6.65;4.07;;;14.50;60.50;;;;;;10903898;32;20429;-72
2022/04/20 22:46:20;;;;;;;6.05;5.07;;;14.40;60.60;;;;;;10903468;32;20028;-72
2022/04/20 22:52:22;;;;;;;8.05;5.50;;;14.30;61.20;;;;;;10906409;32;20023;-72
2022/04/20 22:58:31;;;;;;;4.57;3.58;;;14.30;61.70;;;;;;10910734;32;20019;-72
2022/04/20 23:04:33;;;;;;;6.22;4.18;;;14.30;61.60;;;;;;10909580;32;20055;-72
2022/04/20 23:10:35;;;;;;;6.57;4.55;;;14.30;61.50;;;;;;10910109;32;20027;-72
2022/04/20 23:16:37;;;;;;;6.78;3.90;;;14.00;61.70;;;;;;10909846;32;20024;-72
2022/04/20 23:22:39;;;;;;;6.70;4.57;;;13.90;61.80;;;;;;10909857;32;20037;-72
2022/04/20 23:28:42;;;;;;;5.28;3.67;;;13.90;62.00;;;;;;10909672;32;20065;-72
2022/04/20 23:34:49;;;;;;;7.00;4.12;;;14.00;62.60;;;;;;10909490;32;20011;-72
2022/04/20 23:40:52;;;;;;;6.20;4.10;;;14.00;62.60;;;;;;10909325;32;20050;-72
2022/04/20 23:46:54;;;;;;;8.13;5.45;;;13.90;63.10;;;;;;10908898;32;20050;-72
2022/04/20 23:52:56;;;;;;;6.07;3.85;;;13.90;63.40;;;;;;10908777;32;20328;-72
2022/04/20 23:59:03;;;;;;;9.20;4.47;;;13.80;63.20;;;;;;10908527;32;20070;-72
